Nearby METAR Reports

 

ESTA - Ängelholm, Sweden
Distance from station: SSV 17km
Uppdaterad: 2024-06-16 17:50
Klart
Klart
 Vind från SSO
Vind: SSO 20 km/h
Temperatur: 20°C
Daggpunkt: 9°C
Luftfuktighet: 49%
Barometer: 1008 hPa
Summering: Klart
Visibility: greater than 10 km
2024/06/16 15:50 ESTA 161550Z 15011KT CAVOK 20/09 Q1008
ESMT - Halmstad, Sweden
Distance from station: N 26km
Uppdaterad: 2024-06-16 17:50
Lätt regn, Delvis molnigt
Lätt regn, Delvis molnigt
 Vind från OSO
Vind: OSO 17 km/h
Temperatur: 16°C
Daggpunkt: 13°C
Luftfuktighet: 83%
Barometer: 1009 hPa
Summering: Lätt regn
Clouds: Delvis molnigt
Visibility: 10 km
Cloud details: Few Clouds 366 m
Delvis molnigt 1768 m
2024/06/16 15:50 ESMT 161550Z 12009KT 9999 -RA FEW012 SCT058 16/13 Q1009
 
EKCH - Copenhagen/Kastrup, Denmark
Distance from station: S 92km
Uppdaterad: 2024-06-16 17:50
Few Clouds
Few Clouds
 Vind från SSO
Vind: SSO 19 km/h
Temperatur: 18°C
Daggpunkt: 12°C
Luftfuktighet: 68%
Barometer: 1008 hPa
Clouds: Few Clouds
Visibility: 10 km
Cloud details: Few Clouds 3048 m
2024/06/16 15:50 EKCH 161550Z AUTO 15010KT 9999 FEW100/// 18/12 Q1008 TEMPO SHRA SCT040CB
ESMK - Kristianstad/Everöd, Sweden
Distance from station: SO 93km
Uppdaterad: 2024-06-16 17:50
Klart
Klart
 Vind från SO
Vind: SO 22 km/h
Temperatur: 18°C
Daggpunkt: 12°C
Luftfuktighet: 68%
Barometer: 1010 hPa
Summering: Klart
Visibility: greater than 10 km
2024/06/16 15:50 ESMK 161550Z 14012KT CAVOK 18/12 Q1010
 
ESMS - Malmö/Sturup, Sweden
Distance from station: SSO 104km
Uppdaterad: 2024-06-16 17:50
Klart
Klart
 Vind från SO
Vind: SO 26 km/h
Temperatur: 19°C
Daggpunkt: 10°C
Luftfuktighet: 56%
Barometer: 1009 hPa
Summering: Klart
Visibility: greater than 10 km
2024/06/16 15:50 ESMS 161550Z 13014KT CAVOK 19/10 Q1009
ESMX - Växjö/Kronoberg, Sweden
Distance from station: ONO 124km
Uppdaterad: 2024-06-16 17:50
Klart
Klart
 Vind från S
Vind: S 17 km/h
Temperatur: 20°C
Daggpunkt: 7°C
Luftfuktighet: 43%
Barometer: 1010 hPa
Summering: Klart
Visibility: greater than 10 km
2024/06/16 15:50 ESMX 161550Z 18009KT CAVOK 20/07 Q1010
 
EKAH - Tirstrup, Denmark
Distance from station: V 141km
Uppdaterad: 2024-06-16 17:50
Övervägande molnigt
Övervägande molnigt
 Vind från S
Vind: S 15 km/h
Temperatur: 19°C
Daggpunkt: 11°C
Luftfuktighet: 60%
Barometer: 1007 hPa
Clouds: Övervägande molnigt
Visibility: 10 km
Cloud details: Övervägande molnigt 3353 m
2024/06/16 15:50 EKAH 161550Z AUTO 17008KT 130V220 9999 BKN110/// 19/11 Q1007
ESGG - Göteborg/Landvetter, Sweden
Distance from station: NNV 142km
Uppdaterad: 2024-06-16 17:50
Klart
Klart
 Vind från SO
Vind: SO 17 km/h
Temperatur: 17°C
Daggpunkt: 9°C
Luftfuktighet: 59%
Barometer: 1008 hPa
Summering: Klart
Visibility: greater than 10 km
2024/06/16 15:50 ESGG 161550Z 14009KT CAVOK 17/09 Q1008
 
ESDF - Ronneby, Sweden
Distance from station: O 147km
Uppdaterad: 2024-06-16 17:50
Klart
Klart
 Vind från SO
Vind: SO 20 km/h
Temperatur: 19°C
Daggpunkt: 8°C
Luftfuktighet: 49%
Barometer: 1011 hPa
Summering: Klart
Visibility: greater than 10 km
2024/06/16 15:50 ESDF 161550Z 14011KT 110V170 CAVOK 19/08 Q1011
ESGJ - Jönköping Airport, Sweden
Distance from station: NNO 164km
Uppdaterad: 2024-06-16 17:50
Klart
Klart
 Vind från SO
Vind: SO 9 km/h
Temperatur: 17°C
Daggpunkt: 13°C
Luftfuktighet: 77%
Barometer: 1010 hPa
Clouds: Klart
Visibility: 10 km
2024/06/16 15:50 ESGJ 161550Z AUTO 13005KT 9999 NCD 17/13 Q1010 REDZ
 
EKOD - Odense/Beldringe, Denmark
Distance from station: VSV 193km
Uppdaterad: 2024-06-16 16:50
NOT Current
Delvis molnigt
Delvis molnigt
 Vind från SSO
Vind: SSO 20 km/h
Temperatur: 20°C
Daggpunkt: 11°C
Luftfuktighet: 56%
Barometer: 1007 hPa
Clouds: Delvis molnigt
Visibility: 10 km
Cloud details: Few Clouds 1189 m
Delvis molnigt 1524 m
2024/06/16 14:50 EKOD 161450Z 16011KT 120V200 9999 FEW039 SCT050 20/11 Q1007
EKYT - AAlborg, Denmark
Distance from station: VNV 199km
Uppdaterad: 2024-06-16 17:50
Övervägande molnigt
Övervägande molnigt
 Vind från SSO
Vind: SSO 22 km/h
Temperatur: 18°C
Daggpunkt: 11°C
Luftfuktighet: 64%
Barometer: 1006 hPa
Clouds: Övervägande molnigt
Visibility: 10 km
Cloud details: Few Clouds 1097 m
Delvis molnigt 2408 m
Övervägande molnigt 3658 m
2024/06/16 15:50 EKYT 161550Z AUTO 15012KT 9999 FEW036/// SCT079/// BKN120/// 18/11 Q1006
 
ESMQ - Kalmar, Sweden
Distance from station: O 211km
Uppdaterad: 2024-06-16 17:50
Klart
Klart
 Vind från S
Vind: S 19 km/h
Temperatur: 19°C
Daggpunkt: 10°C
Luftfuktighet: 56%
Barometer: 1011 hPa
Summering: Klart
Visibility: greater than 10 km
2024/06/16 15:50 ESMQ 161550Z 18010KT CAVOK 19/10 Q1011